aviador You're here:

LFGJ Decoded Metar

DOLE in FRANCE
Report Time2017-10-20 12:00:00
UTC Time2017-10-20 12:28:35
Flight Rules vfr VFR
Wind190° at 09 kt
W.Decomp.*RWY 23: 6.9 kt HW 5.8 kt LCW
W.Rank190° ranks 1
Current wind is above 190° avg. (8.7)
Visibility9999 m
Phenomena:N/A
Clouds:Broken 042 Hf
Broken 064 Hf
Overcast 080 Hf
Expected CloudBase > 2,000 ft AGL from Temp-Dew spread
Ceiling4,200 ft
Temp18°C (ISA +4)
Dew Point13°C (73% RH)
AAT15.7°C
QNH1017 hPa
Density Alt1,214 ft
Elevation643 ft
Report Wrong Elevation
Raw Report
METAR LFGJ 201200Z AUTO 19009KT 9999 BKN042 BKN064 OVC080 18/13 Q1017
TEMPO FEW050TCU=

Extra information for LFGJ:More info

Metar Taf Metar & Taf Last 4 Metars F.Rules Stats Wind Profile Meteogram Temp Stats Airport Information Weather charts Add Link Nearby VenuesMetar ALERT Operation Metar Decoded Social comments